createdAt,value
2023-02-08T00:03:48.582Z,93.10
2023-02-08T00:07:50.561Z,80.25
2023-02-08T00:11:52.610Z,88.05
2023-02-08T00:15:55.249Z,77.38
2023-02-08T00:19:57.270Z,82.88
2023-02-08T00:23:59.352Z,86.07
2023-02-08T00:28:03.882Z,77.68
2023-02-08T00:32:06.229Z,80.18
2023-02-08T00:36:09.144Z,74.40
2023-02-08T00:40:11.931Z,78.78
2023-02-08T00:44:13.828Z,82.70
2023-02-08T00:48:15.737Z,84.35
2023-02-08T00:52:19.973Z,80.72
2023-02-08T00:56:22.009Z,71.57
2023-02-08T01:00:24.004Z,82.50
2023-02-08T01:04:26.519Z,76.93
2023-02-08T01:08:28.589Z,74.82
2023-02-08T01:12:31.115Z,75.68
2023-02-08T01:16:35.013Z,73.35
2023-02-08T01:20:37.795Z,68.60
2023-02-08T01:24:40.094Z,84.70
2023-02-08T01:28:42.198Z,71.28
2023-02-08T01:32:43.915Z,74.10
2023-02-08T01:36:45.909Z,77.18
2023-02-08T01:40:48.389Z,71.30
2023-02-08T01:45:15.349Z,84.60
2023-02-08T01:49:25.194Z,75.85
2023-02-08T01:53:29.346Z,82.35
2023-02-08T01:57:31.624Z,80.47
2023-02-08T02:01:34.263Z,73.95
2023-02-08T02:05:41.423Z,93.13
2023-02-08T02:10:22.855Z,76.15
2023-02-08T02:14:24.923Z,76.25
2023-02-08T02:18:30.529Z,70.22
2023-02-08T02:22:32.502Z,77.88
2023-02-08T02:26:44.286Z,88.07
2023-02-08T02:31:01.630Z,81.20
2023-02-08T02:35:20.113Z,78.45
2023-02-08T02:39:57.406Z,80.72
2023-02-08T02:44:00.914Z,85.10
2023-02-08T02:48:13.700Z,79.40
2023-02-08T02:52:23.866Z,80.35
2023-02-08T02:56:32.065Z,86.07
2023-02-08T03:04:39.178Z,80.43
2023-02-08T03:09:04.639Z,67.97
2023-02-08T03:13:31.236Z,73.57
2023-02-08T03:17:44.998Z,76.53
2023-02-08T03:21:54.904Z,73.57
2023-02-08T03:26:20.576Z,79.47
2023-02-08T03:30:46.764Z,86.22
2023-02-08T03:34:51.548Z,87.15
2023-02-08T03:38:54.672Z,84.72
2023-02-08T03:43:01.156Z,82.50
2023-02-08T03:47:12.377Z,82.72
2023-02-08T03:51:15.577Z,82.40
2023-02-08T03:55:21.699Z,81.10
2023-02-08T03:59:29.358Z,89.13
2023-02-08T04:03:33.979Z,83.57
2023-02-08T04:07:35.964Z,92.57
2023-02-08T04:11:37.631Z,84.57
2023-02-08T04:15:40.160Z,85.38
2023-02-08T04:19:42.409Z,88.15
2023-02-08T04:23:44.340Z,86.25
2023-02-08T04:27:46.445Z,87.90
2023-02-08T04:31:48.587Z,91.57
2023-02-08T04:35:50.589Z,90.32
2023-02-08T04:39:52.709Z,90.53
2023-02-08T04:43:54.630Z,92.78
2023-02-08T04:47:58.341Z,99.40
2023-02-08T04:52:01.086Z,104.13
2023-02-08T04:56:03.119Z,92.38
2023-02-08T05:00:06.391Z,112.75
2023-02-08T05:04:08.506Z,95.78
2023-02-08T05:08:10.430Z,100.35
2023-02-08T05:12:12.476Z,103.75
2023-02-08T05:16:14.487Z,99.30
2023-02-08T05:20:16.573Z,96.32
2023-02-08T05:24:18.695Z,98.93
2023-02-08T05:28:23.653Z,98.05
2023-02-08T05:32:26.019Z,97.93
2023-02-08T05:36:28.355Z,96.10
2023-02-08T05:40:31.623Z,87.20
2023-02-08T05:44:33.673Z,88.15
2023-02-08T05:48:35.671Z,98.43
2023-02-08T05:52:37.658Z,81.97
2023-02-08T05:56:39.600Z,84.18
2023-02-08T06:00:42.002Z,86.30
2023-02-08T06:04:44.230Z,88.07
2023-02-08T06:08:46.607Z,81.75
2023-02-08T06:12:48.726Z,79.32
2023-02-08T06:16:50.744Z,90.10
2023-02-08T06:20:54.211Z,96.30
2023-02-08T06:24:56.207Z,85.60
2023-02-08T06:28:59.181Z,79.97
2023-02-08T06:33:01.141Z,83.40
2023-02-08T06:37:05.494Z,77.88
2023-02-08T06:41:07.873Z,90.18
2023-02-08T06:45:12.065Z,88.55
2023-02-08T06:49:15.670Z,83.80
2023-02-08T06:53:17.627Z,90.97
2023-02-08T06:57:19.763Z,77.13
2023-02-08T07:01:21.733Z,81.40
2023-02-08T07:05:23.750Z,81.88
2023-02-08T07:09:25.715Z,75.15
2023-02-08T07:13:27.849Z,83.85
2023-02-08T07:17:29.847Z,77.05
2023-02-08T07:21:31.855Z,75.60
2023-02-08T07:25:34.034Z,79.03
2023-02-08T07:29:36.674Z,75.13
2023-02-08T07:33:39.581Z,68.57
2023-02-08T07:37:41.753Z,68.20
2023-02-08T07:41:43.685Z,68.15
2023-02-08T07:45:45.719Z,55.45
2023-02-08T07:49:47.745Z,63.35
2023-02-08T07:53:50.569Z,58.08
2023-02-08T07:57:52.182Z,60.40
2023-02-08T08:01:54.215Z,53.40
2023-02-08T08:05:56.242Z,50.72
2023-02-08T08:09:58.371Z,49.80
2023-02-08T08:14:00.468Z,52.53
2023-02-08T08:18:02.468Z,47.33
2023-02-08T08:22:04.518Z,52.10
2023-02-08T08:26:08.810Z,58.22
2023-02-08T08:30:13.949Z,45.53
2023-02-08T08:34:15.937Z,48.28
2023-02-08T08:38:17.895Z,46.47
2023-02-08T08:42:20.898Z,49.75
2023-02-08T08:46:22.947Z,43.50
2023-02-08T08:50:25.214Z,49.08
2023-02-08T08:54:27.214Z,38.88
2023-02-08T08:58:29.717Z,46.28
2023-02-08T09:02:31.862Z,41.58
2023-02-08T09:07:04.714Z,50.70
2023-02-08T09:11:16.748Z,40.15
2023-02-08T09:15:27.105Z,44.95
2023-02-08T09:19:32.471Z,35.75
2023-02-08T09:23:38.619Z,42.95
2023-02-08T09:27:43.253Z,42.13
2023-02-08T09:31:46.402Z,44.47
2023-02-08T09:35:50.487Z,39.45
2023-02-08T09:39:53.184Z,34.25
2023-02-08T09:44:20.652Z,40.70
2023-02-08T09:48:33.991Z,35.47
2023-02-08T09:52:54.772Z,32.70
2023-02-08T09:57:00.074Z,29.67
2023-02-08T10:01:05.965Z,30.60
2023-02-08T10:05:13.856Z,31.10
2023-02-08T10:09:20.832Z,35.13
2023-02-08T10:13:46.398Z,31.52
2023-02-08T10:18:18.698Z,28.23
2023-02-08T10:22:39.604Z,29.33
2023-02-08T10:26:48.035Z,22.95
2023-02-08T10:31:06.850Z,22.80
2023-02-08T10:35:25.785Z,22.33
2023-02-08T10:39:30.871Z,21.90
2023-02-08T10:43:38.692Z,22.15
2023-02-08T10:47:55.572Z,20.45
2023-02-08T10:51:57.609Z,24.27
2023-02-08T10:55:59.888Z,13.48
2023-02-08T11:00:11.377Z,14.55
2023-02-08T11:04:13.728Z,13.70
2023-02-08T11:08:22.334Z,14.13
2023-02-08T11:12:24.346Z,14.38
2023-02-08T11:16:27.390Z,14.85
2023-02-08T11:20:36.867Z,19.92
2023-02-08T11:24:41.489Z,11.90
2023-02-08T11:28:44.334Z,12.23
2023-02-08T11:32:48.592Z,8.15
2023-02-08T11:36:50.876Z,7.97
2023-02-08T11:40:56.330Z,9.60
2023-02-08T11:45:00.120Z,11.52
2023-02-08T11:49:03.585Z,8.48
2023-02-08T11:53:17.458Z,8.60
2023-02-08T11:57:22.361Z,8.82
2023-02-08T12:01:29.422Z,12.45
2023-02-08T12:05:55.366Z,7.78
2023-02-08T12:10:27.391Z,7.78
2023-02-08T12:14:50.525Z,8.85
2023-02-08T12:19:20.326Z,12.75
2023-02-08T12:23:34.744Z,8.50
2023-02-08T12:27:48.510Z,13.43
2023-02-08T12:32:27.930Z,16.08
2023-02-08T12:36:42.151Z,12.70
2023-02-08T12:41:03.104Z,9.88
2023-02-08T12:45:21.575Z,13.32
2023-02-08T12:53:53.037Z,11.82
2023-02-08T12:58:00.266Z,12.65
2023-02-08T13:02:13.472Z,10.13
2023-02-08T13:06:21.354Z,12.32
2023-02-08T13:10:37.446Z,10.88
2023-02-08T13:14:45.771Z,13.82
2023-02-08T13:19:23.919Z,20.25
2023-02-08T13:23:36.552Z,17.13
2023-02-08T13:27:43.098Z,14.70
2023-02-08T13:31:51.770Z,14.43
2023-02-08T13:35:54.435Z,12.23
2023-02-08T13:40:21.523Z,10.25
2023-02-08T13:44:37.399Z,9.57
2023-02-08T13:48:49.500Z,11.32
2023-02-08T13:52:52.369Z,19.85
2023-02-08T13:56:54.538Z,13.45
2023-02-08T14:00:56.628Z,32.72
2023-02-08T14:05:37.089Z,14.50
2023-02-08T14:09:51.206Z,46.45
2023-02-08T14:14:16.150Z,50.70
2023-02-08T14:18:28.912Z,47.50
2023-02-08T14:22:37.327Z,14.75
2023-02-08T14:26:39.398Z,16.15
2023-02-08T14:30:42.766Z,15.88
2023-02-08T14:34:45.180Z,15.68
2023-02-08T14:38:53.858Z,18.05
2023-02-08T14:43:00.194Z,14.80
2023-02-08T14:47:02.016Z,15.93
2023-02-08T14:51:18.666Z,18.73
2023-02-08T14:55:27.495Z,13.05
2023-02-08T14:59:34.613Z,16.90
2023-02-08T15:03:37.183Z,18.25
2023-02-08T15:07:50.123Z,18.48
2023-02-08T15:12:04.960Z,16.95
2023-02-08T15:16:12.441Z,22.85
2023-02-08T15:20:20.600Z,24.27
2023-02-08T15:28:29.375Z,18.17
2023-02-08T15:32:31.522Z,21.88
2023-02-08T15:36:36.580Z,28.67
2023-02-08T15:40:38.593Z,23.05
2023-02-08T15:44:43.890Z,22.92
2023-02-08T15:48:46.562Z,24.58
2023-02-08T15:53:13.373Z,27.98
2023-02-08T15:57:46.265Z,21.40
2023-02-08T16:01:49.312Z,26.70
2023-02-08T16:06:00.566Z,26.05
2023-02-08T16:10:03.623Z,30.08
2023-02-08T16:14:07.790Z,34.55
2023-02-08T16:18:31.684Z,28.95
2023-02-08T16:22:33.973Z,34.20
2023-02-08T16:26:45.400Z,39.38
2023-02-08T16:30:47.681Z,51.05
2023-02-08T16:34:50.020Z,73.60
2023-02-08T16:39:16.384Z,64.78
2023-02-08T16:43:21.173Z,81.68
2023-02-08T16:47:53.695Z,74.32
2023-02-08T16:51:59.820Z,93.75
2023-02-08T16:56:02.209Z,157.50
2023-02-08T17:00:13.938Z,143.80
2023-02-08T17:04:16.139Z,141.52
2023-02-08T17:08:21.050Z,150.77
2023-02-08T17:12:24.283Z,219.88
2023-02-08T17:16:28.920Z,203.95
2023-02-08T17:20:34.648Z,162.98
2023-02-08T17:24:38.920Z,171.52
2023-02-08T17:28:43.086Z,152.88
2023-02-08T17:32:45.056Z,164.23
2023-02-08T17:36:47.852Z,155.52
2023-02-08T17:40:49.893Z,147.65
2023-02-08T17:44:51.460Z,131.65
2023-02-08T17:48:54.507Z,130.93
2023-02-08T17:52:56.678Z,134.25
2023-02-08T17:56:59.822Z,159.30
2023-02-08T18:01:01.938Z,144.20
2023-02-08T18:05:04.666Z,140.20
2023-02-08T18:09:06.661Z,147.73
2023-02-08T18:13:09.102Z,148.13
2023-02-08T18:17:11.421Z,163.23
2023-02-08T18:21:16.153Z,159.27
2023-02-08T18:25:19.080Z,166.43
2023-02-08T18:29:21.314Z,168.80
2023-02-08T18:33:23.342Z,168.02
2023-02-08T18:37:25.775Z,161.88
2023-02-08T18:41:29.764Z,156.18
2023-02-08T18:45:31.928Z,165.38
2023-02-08T18:49:40.797Z,141.55
2023-02-08T18:53:45.920Z,143.38
2023-02-08T18:57:48.077Z,144.23
2023-02-08T19:01:50.355Z,197.88
2023-02-08T19:05:52.538Z,216.45
2023-02-08T19:09:54.722Z,193.90
2023-02-08T19:13:58.883Z,218.50
2023-02-08T19:18:00.932Z,237.15
2023-02-08T19:22:03.152Z,199.63
2023-02-08T19:26:08.534Z,232.32
2023-02-08T19:30:10.904Z,216.27
2023-02-08T19:34:13.076Z,211.63
2023-02-08T19:38:15.149Z,247.73
2023-02-08T19:42:17.396Z,257.67
2023-02-08T19:46:25.701Z,242.32
2023-02-08T19:50:27.766Z,250.25
2023-02-08T19:54:30.022Z,237.40
2023-02-08T19:58:33.327Z,239.15
2023-02-08T20:02:35.215Z,226.20
2023-02-08T20:06:39.263Z,201.32
2023-02-08T20:10:44.279Z,223.00
2023-02-08T20:14:46.354Z,226.88
2023-02-08T20:18:49.015Z,236.57
2023-02-08T20:22:51.170Z,215.68
2023-02-08T20:26:53.372Z,235.10
2023-02-08T20:30:55.490Z,233.77
2023-02-08T20:34:59.723Z,221.35
2023-02-08T20:39:02.080Z,237.10
2023-02-08T20:43:04.736Z,240.15
2023-02-08T20:47:08.892Z,244.30
2023-02-08T20:51:14.069Z,221.93
2023-02-08T20:55:15.993Z,242.23
2023-02-08T20:59:18.002Z,231.38
2023-02-08T21:03:20.126Z,222.02
2023-02-08T21:07:22.353Z,210.73
2023-02-08T21:11:30.519Z,229.45
2023-02-08T21:15:32.744Z,219.55
2023-02-08T21:19:35.185Z,236.18
2023-02-08T21:23:38.173Z,230.35
2023-02-08T21:27:40.248Z,222.70
2023-02-08T21:31:42.542Z,227.50
2023-02-08T21:35:44.615Z,203.48
2023-02-08T21:39:47.415Z,205.70
2023-02-08T21:43:51.015Z,201.00
2023-02-08T21:47:53.200Z,200.55
2023-02-08T21:52:13.579Z,209.20
2023-02-08T21:56:15.772Z,188.50
2023-02-08T22:00:17.986Z,203.20
2023-02-08T22:04:20.522Z,182.10
2023-02-08T22:08:22.290Z,179.63
2023-02-08T22:12:24.482Z,174.90
2023-02-08T22:16:26.559Z,176.95
2023-02-08T22:20:29.742Z,177.05
2023-02-08T22:24:35.500Z,167.60
2023-02-08T22:28:37.697Z,156.70
2023-02-08T22:32:44.253Z,161.50
2023-02-08T22:36:46.843Z,179.32
2023-02-08T22:40:48.887Z,162.23
2023-02-08T22:44:54.421Z,158.00
2023-02-08T22:48:56.496Z,170.57
2023-02-08T22:52:58.542Z,167.32
2023-02-08T22:57:00.615Z,203.13
2023-02-08T23:01:02.673Z,187.18
2023-02-08T23:05:05.104Z,200.00
2023-02-08T23:09:07.015Z,191.60
2023-02-08T23:13:09.584Z,198.50
2023-02-08T23:17:11.870Z,192.05
2023-02-08T23:21:18.672Z,183.77
2023-02-08T23:25:21.202Z,185.77
2023-02-08T23:29:23.343Z,197.32
2023-02-08T23:33:24.927Z,204.50
2023-02-08T23:37:26.952Z,184.85
2023-02-08T23:41:29.552Z,184.13
2023-02-08T23:45:31.597Z,177.20
2023-02-08T23:49:33.822Z,190.90
2023-02-08T23:53:37.256Z,186.48
2023-02-08T23:57:39.558Z,186.32
